Terminal Aerodrome Forecast
Issued by NWS Melbourne, FL

Home | Current Version | Previous Version | Text Only | Print | Product List | Glossary On
Versions: 1 2 3 4 5 6 7 8 9 10 11 12 13 14 15
000
FTUS42 KMLB 302326
TAFDAB
TAF
KDAB 302326Z 0100/0124 29005KT P6SM FEW025 SCT070 SCT250
     FM011400 26008KT P6SM FEW025 SCT250
     FM011900 23009KT P6SM FEW040 SCT060 SCT250=

USA.gov is the U.S. government's official web portal to all federal, state and local government web resources and services.